createdAt,value
2022-08-16T00:00:03.555Z,10.23
2022-08-16T00:02:33.157Z,10.13
2022-08-16T00:05:00.419Z,10.32
2022-08-16T00:07:28.962Z,10.02
2022-08-16T00:09:59.357Z,10.30
2022-08-16T00:12:27.921Z,10.18
2022-08-16T00:14:57.046Z,10.52
2022-08-16T00:17:25.926Z,9.55
2022-08-16T00:19:55.039Z,10.05
2022-08-16T00:22:25.076Z,9.68
2022-08-16T00:24:55.910Z,10.43
2022-08-16T00:27:23.397Z,9.27
2022-08-16T00:30:00.595Z,9.40
2022-08-16T00:32:45.718Z,10.25
2022-08-16T00:35:18.187Z,9.70
2022-08-16T00:37:58.539Z,10.30
2022-08-16T00:40:43.743Z,9.80
2022-08-16T00:43:42.426Z,9.55
2022-08-16T00:46:52.964Z,10.30
2022-08-16T00:49:29.197Z,9.82
2022-08-16T00:52:30.151Z,10.80
2022-08-16T00:54:54.303Z,9.82
2022-08-16T00:57:24.044Z,9.60
2022-08-16T00:59:59.115Z,9.60
2022-08-16T01:02:31.339Z,10.30
2022-08-16T01:05:11.375Z,9.57
2022-08-16T01:07:51.031Z,10.07
2022-08-16T01:10:21.453Z,10.10
2022-08-16T01:13:05.520Z,8.73
2022-08-16T01:15:37.458Z,9.50
2022-08-16T01:18:38.861Z,9.20
2022-08-16T01:21:08.049Z,9.25
2022-08-16T01:24:00.737Z,9.13
2022-08-16T01:26:34.461Z,8.48
2022-08-16T01:29:09.864Z,8.75
2022-08-16T01:31:42.567Z,8.15
2022-08-16T01:34:23.267Z,8.77
2022-08-16T01:39:29.012Z,8.25
2022-08-16T01:41:55.893Z,9.30
2022-08-16T01:44:23.260Z,9.32
2022-08-16T01:47:05.799Z,8.80
2022-08-16T01:50:41.966Z,8.52
2022-08-16T01:52:30.699Z,9.48
2022-08-16T01:54:58.586Z,9.05
2022-08-16T01:57:27.569Z,8.00
2022-08-16T01:59:55.015Z,8.55
2022-08-16T02:02:27.355Z,8.75
2022-08-16T02:04:56.201Z,8.90
2022-08-16T02:07:24.703Z,9.18
2022-08-16T02:09:57.007Z,8.80
2022-08-16T02:12:51.629Z,8.30
2022-08-16T02:15:15.205Z,8.00
2022-08-16T02:17:43.485Z,9.00
2022-08-16T02:20:12.191Z,8.35
2022-08-16T02:22:39.671Z,8.00
2022-08-16T02:25:14.617Z,8.30
2022-08-16T02:27:44.429Z,8.07
2022-08-16T02:30:37.111Z,7.90
2022-08-16T02:33:05.561Z,8.02
2022-08-16T02:35:33.517Z,8.20
2022-08-16T02:38:01.614Z,8.18
2022-08-16T02:40:36.055Z,7.93
2022-08-16T02:43:04.476Z,7.88
2022-08-16T02:45:32.345Z,8.40
2022-08-16T02:48:01.776Z,8.40
2022-08-16T02:50:55.188Z,8.85
2022-08-16T02:53:34.156Z,7.65
2022-08-16T02:56:00.977Z,9.18
2022-08-16T02:58:29.171Z,8.52
2022-08-16T03:00:57.763Z,8.35
2022-08-16T03:03:26.300Z,7.88
2022-08-16T03:05:53.763Z,8.10
2022-08-16T03:08:51.049Z,8.20
2022-08-16T03:11:16.537Z,9.02
2022-08-16T03:13:58.082Z,7.90
2022-08-16T03:16:38.470Z,8.90
2022-08-16T03:19:09.884Z,8.27
2022-08-16T03:21:38.608Z,8.38
2022-08-16T03:24:28.651Z,8.57
2022-08-16T03:26:57.845Z,8.68
2022-08-16T03:29:27.417Z,8.65
2022-08-16T03:31:58.965Z,8.65
2022-08-16T03:34:27.433Z,9.23
2022-08-16T03:36:55.167Z,8.55
2022-08-16T03:39:22.212Z,8.90
2022-08-16T03:41:51.305Z,8.77
2022-08-16T03:44:44.185Z,9.02
2022-08-16T03:47:19.071Z,10.10
2022-08-16T03:49:51.493Z,9.65
2022-08-16T03:52:20.662Z,10.05
2022-08-16T03:54:53.178Z,9.57
2022-08-16T03:57:24.165Z,9.50
2022-08-16T03:59:59.545Z,10.57
2022-08-16T04:02:31.727Z,10.05
2022-08-16T04:04:58.986Z,10.13
2022-08-16T04:07:26.046Z,9.13
2022-08-16T04:09:52.861Z,9.88
2022-08-16T04:12:53.797Z,9.10
2022-08-16T04:15:09.187Z,9.52
2022-08-16T04:17:37.374Z,9.68
2022-08-16T04:20:23.776Z,9.57
2022-08-16T04:22:57.118Z,9.35
2022-08-16T04:25:25.759Z,9.57
2022-08-16T04:27:54.358Z,10.07
2022-08-16T04:30:32.367Z,8.93
2022-08-16T04:33:02.165Z,9.35
2022-08-16T04:35:34.365Z,10.27
2022-08-16T04:38:11.061Z,9.63
2022-08-16T04:40:49.925Z,9.45
2022-08-16T04:43:18.609Z,9.50
2022-08-16T04:45:48.431Z,9.43
2022-08-16T04:48:28.459Z,9.05
2022-08-16T04:51:00.202Z,9.43
2022-08-16T04:53:28.702Z,9.32
2022-08-16T04:55:55.945Z,9.40
2022-08-16T04:58:44.159Z,8.93
2022-08-16T05:01:09.890Z,8.57
2022-08-16T05:03:41.797Z,8.55
2022-08-16T05:06:09.501Z,8.50
2022-08-16T05:08:37.857Z,9.13
2022-08-16T05:11:16.049Z,8.95
2022-08-16T05:13:47.357Z,8.75
2022-08-16T05:16:22.925Z,8.82
2022-08-16T05:18:52.406Z,8.75
2022-08-16T05:21:21.540Z,7.68
2022-08-16T05:23:56.012Z,8.18
2022-08-16T05:26:34.436Z,8.68
2022-08-16T05:29:04.586Z,8.18
2022-08-16T05:31:31.724Z,8.45
2022-08-16T05:34:00.716Z,8.15
2022-08-16T05:36:34.370Z,8.23
2022-08-16T05:39:09.630Z,8.50
2022-08-16T05:41:44.736Z,9.55
2022-08-16T05:44:22.541Z,8.95
2022-08-16T05:46:53.269Z,8.60
2022-08-16T05:49:22.435Z,7.78
2022-08-16T05:51:50.283Z,8.07
2022-08-16T05:54:24.771Z,6.95
2022-08-16T05:56:52.968Z,7.90
2022-08-16T05:59:22.013Z,7.75
2022-08-16T06:01:52.488Z,8.23
2022-08-16T06:04:36.442Z,7.47
2022-08-16T06:07:08.161Z,7.43
2022-08-16T06:09:51.426Z,6.97
2022-08-16T06:12:26.889Z,6.75
2022-08-16T06:14:59.121Z,7.13
2022-08-16T06:17:42.487Z,5.88
2022-08-16T06:20:14.522Z,5.82
2022-08-16T06:22:41.399Z,7.03
2022-08-16T06:25:13.378Z,6.00
2022-08-16T06:27:42.245Z,6.05
2022-08-16T06:32:56.300Z,5.93
2022-08-16T06:35:24.029Z,5.70
2022-08-16T06:37:51.201Z,5.38
2022-08-16T06:40:18.582Z,8.90
2022-08-16T06:42:47.749Z,5.07
2022-08-16T06:45:15.395Z,5.45
2022-08-16T06:47:52.922Z,4.97
2022-08-16T06:50:29.928Z,5.03
2022-08-16T06:53:00.205Z,5.18
2022-08-16T06:55:33.749Z,4.60
2022-08-16T06:58:02.148Z,4.97
2022-08-16T07:00:37.833Z,5.13
2022-08-16T07:03:27.630Z,4.80
2022-08-16T07:05:56.906Z,4.93
2022-08-16T07:08:27.634Z,4.80
2022-08-16T07:10:55.706Z,4.80
2022-08-16T07:13:53.823Z,5.03
2022-08-16T07:16:15.473Z,4.15
2022-08-16T07:18:58.108Z,4.70
2022-08-16T07:21:28.180Z,4.90
2022-08-16T07:24:30.027Z,4.15
2022-08-16T07:27:00.713Z,4.20
2022-08-16T07:29:31.537Z,3.88
2022-08-16T07:32:00.777Z,4.00
2022-08-16T07:34:35.036Z,3.85
2022-08-16T07:37:07.386Z,3.58
2022-08-16T07:39:34.784Z,3.83
2022-08-16T07:42:25.831Z,3.50
2022-08-16T07:44:57.204Z,3.85
2022-08-16T07:47:24.442Z,3.28
2022-08-16T07:49:57.771Z,3.10
2022-08-16T07:52:29.838Z,3.75
2022-08-16T07:54:57.750Z,3.05
2022-08-16T07:57:24.837Z,3.38
2022-08-16T07:59:52.078Z,3.58
2022-08-16T08:02:20.538Z,3.97
2022-08-16T08:04:49.007Z,3.28
2022-08-16T08:07:16.813Z,3.67
2022-08-16T08:09:44.338Z,3.08
2022-08-16T08:12:31.256Z,3.30
2022-08-16T08:15:01.034Z,3.53
2022-08-16T08:17:42.800Z,3.20
2022-08-16T08:20:20.760Z,4.10
2022-08-16T08:23:00.626Z,3.92
2022-08-16T08:25:54.279Z,4.10
2022-08-16T08:28:18.477Z,3.75
2022-08-16T08:30:51.277Z,3.90
2022-08-16T08:33:28.682Z,4.07
2022-08-16T08:36:00.787Z,3.83
2022-08-16T08:38:43.700Z,4.07
2022-08-16T08:41:12.783Z,3.72
2022-08-16T08:43:41.520Z,3.70
2022-08-16T08:46:17.838Z,3.85
2022-08-16T08:48:46.429Z,3.70
2022-08-16T08:51:32.074Z,3.92
2022-08-16T08:54:06.801Z,3.40
2022-08-16T08:56:37.283Z,3.65
2022-08-16T08:59:13.523Z,3.30
2022-08-16T09:01:57.732Z,3.35
2022-08-16T09:04:26.829Z,3.13
2022-08-16T09:06:54.486Z,3.70
2022-08-16T09:09:23.016Z,3.55
2022-08-16T09:12:00.227Z,3.30
2022-08-16T09:14:33.325Z,3.35
2022-08-16T09:17:11.451Z,3.25
2022-08-16T09:19:44.448Z,3.20
2022-08-16T09:22:21.069Z,3.33
2022-08-16T09:24:52.593Z,3.72
2022-08-16T09:27:25.089Z,4.63
2022-08-16T09:30:00.281Z,3.33
2022-08-16T09:32:31.367Z,3.45
2022-08-16T09:35:01.569Z,3.87
2022-08-16T09:37:36.809Z,3.35
2022-08-16T09:40:32.656Z,3.53
2022-08-16T09:42:58.649Z,3.40
2022-08-16T09:45:39.141Z,2.58
2022-08-16T09:48:11.286Z,3.10
2022-08-16T09:50:58.427Z,3.20
2022-08-16T09:53:26.732Z,3.22
2022-08-16T09:55:57.068Z,2.67
2022-08-16T09:58:41.805Z,2.58
2022-08-16T10:01:13.917Z,2.63
2022-08-16T10:04:02.752Z,2.70
2022-08-16T10:06:33.201Z,2.25
2022-08-16T10:09:05.627Z,2.78
2022-08-16T10:11:56.175Z,2.50
2022-08-16T10:14:40.727Z,2.45
2022-08-16T10:17:13.525Z,2.45
2022-08-16T10:19:53.000Z,2.55
2022-08-16T10:22:22.922Z,2.33
2022-08-16T10:25:00.033Z,2.42
2022-08-16T10:27:30.109Z,2.58
2022-08-16T10:30:25.280Z,2.20
2022-08-16T10:32:55.540Z,2.28
2022-08-16T10:35:22.906Z,2.30
2022-08-16T10:37:52.458Z,2.50
2022-08-16T10:40:29.286Z,1.95
2022-08-16T10:43:00.143Z,2.10
2022-08-16T10:45:28.857Z,2.22
2022-08-16T10:48:06.406Z,2.17
2022-08-16T10:50:53.317Z,2.33
2022-08-16T10:53:21.686Z,2.25
2022-08-16T10:55:57.799Z,2.20
2022-08-16T10:58:34.291Z,2.40
2022-08-16T11:03:54.118Z,2.40
2022-08-16T11:06:26.742Z,2.50
2022-08-16T11:14:30.487Z,2.30
2022-08-16T11:17:02.505Z,2.60
2022-08-16T11:20:00.643Z,2.38
2022-08-16T11:22:42.276Z,2.30
2022-08-16T11:25:16.215Z,1.95
2022-08-16T11:28:00.763Z,2.15
2022-08-16T11:30:38.803Z,1.90
2022-08-16T11:33:07.148Z,2.20
2022-08-16T11:38:51.298Z,2.15
2022-08-16T11:41:13.711Z,1.95
2022-08-16T11:43:41.909Z,1.85
2022-08-16T11:46:44.088Z,2.33
2022-08-16T11:48:59.657Z,2.00
2022-08-16T11:51:29.628Z,2.08
2022-08-16T11:53:57.108Z,2.08
2022-08-16T11:56:39.764Z,1.80
2022-08-16T11:59:12.773Z,2.13
2022-08-16T12:01:55.399Z,1.92
2022-08-16T12:04:26.606Z,2.10
2022-08-16T12:06:54.764Z,1.83
2022-08-16T12:09:24.080Z,1.73
2022-08-16T12:11:53.049Z,1.67
2022-08-16T12:14:22.728Z,1.50
2022-08-16T12:16:55.416Z,1.73
2022-08-16T12:19:35.488Z,1.80
2022-08-16T12:22:05.875Z,1.50
2022-08-16T12:24:45.570Z,1.65
2022-08-16T12:27:18.861Z,1.85
2022-08-16T12:29:45.831Z,1.70
2022-08-16T12:32:38.359Z,1.70
2022-08-16T12:35:00.119Z,1.70
2022-08-16T12:37:27.890Z,1.65
2022-08-16T12:39:56.990Z,1.65
2022-08-16T12:42:35.217Z,2.00
2022-08-16T12:45:09.061Z,1.65
2022-08-16T12:48:10.051Z,1.73
2022-08-16T12:50:41.241Z,1.73
2022-08-16T12:53:08.077Z,1.80
2022-08-16T12:55:41.885Z,1.85
2022-08-16T12:58:14.003Z,1.73
2022-08-16T13:00:58.820Z,1.85
2022-08-16T13:03:25.924Z,1.75
2022-08-16T13:05:55.808Z,1.90
2022-08-16T13:08:30.817Z,2.40
2022-08-16T13:11:00.603Z,2.03
2022-08-16T13:13:29.565Z,1.85
2022-08-16T13:16:03.616Z,1.90
2022-08-16T13:18:34.175Z,1.63
2022-08-16T13:21:07.098Z,2.08
2022-08-16T13:23:36.015Z,2.50
2022-08-16T13:26:04.142Z,2.35
2022-08-16T13:28:31.040Z,2.30
2022-08-16T13:30:58.765Z,2.70
2022-08-16T13:33:31.247Z,2.80
2022-08-16T13:36:00.376Z,2.20
2022-08-16T13:38:30.195Z,2.72
2022-08-16T13:41:08.514Z,2.40
2022-08-16T13:43:37.204Z,2.85
2022-08-16T13:46:04.444Z,3.22
2022-08-16T13:48:42.699Z,2.63
2022-08-16T13:51:18.001Z,2.85
2022-08-16T13:53:59.524Z,2.38
2022-08-16T13:56:37.101Z,3.55
2022-08-16T13:59:19.183Z,2.67
2022-08-16T14:01:47.280Z,2.25
2022-08-16T14:04:31.193Z,2.70
2022-08-16T14:06:59.820Z,2.42
2022-08-16T14:09:28.548Z,2.45
2022-08-16T14:12:00.777Z,2.38
2022-08-16T14:14:30.019Z,2.45
2022-08-16T14:17:03.267Z,3.20
2022-08-16T14:19:31.119Z,2.38
2022-08-16T14:22:14.392Z,2.10
2022-08-16T14:24:49.349Z,1.90
2022-08-16T14:27:18.422Z,2.20
2022-08-16T14:29:49.402Z,2.28
2022-08-16T14:32:27.227Z,2.20
2022-08-16T14:35:02.924Z,2.65
2022-08-16T14:37:31.096Z,2.28
2022-08-16T14:39:59.025Z,2.10
2022-08-16T14:42:26.290Z,2.30
2022-08-16T14:44:54.154Z,2.22
2022-08-16T14:47:22.732Z,2.10
2022-08-16T14:49:49.757Z,2.30
2022-08-16T14:52:52.034Z,2.05
2022-08-16T14:55:11.873Z,2.15
2022-08-16T14:57:39.876Z,2.35
2022-08-16T15:00:11.850Z,2.15
2022-08-16T15:02:40.547Z,2.40
2022-08-16T15:05:09.401Z,2.47
2022-08-16T15:07:36.387Z,2.20
2022-08-16T15:10:08.642Z,2.40
2022-08-16T15:12:49.817Z,1.88
2022-08-16T15:15:20.535Z,2.13
2022-08-16T15:17:54.604Z,1.95
2022-08-16T15:20:29.587Z,1.90
2022-08-16T15:22:59.045Z,2.15
2022-08-16T15:25:41.866Z,2.00
2022-08-16T15:28:30.710Z,1.90
2022-08-16T15:31:00.303Z,2.22
2022-08-16T15:33:27.651Z,2.05
2022-08-16T15:35:55.173Z,2.28
2022-08-16T15:38:57.961Z,2.20
2022-08-16T15:41:09.623Z,2.20
2022-08-16T15:43:40.266Z,2.38
2022-08-16T15:46:35.155Z,1.95
2022-08-16T15:49:12.491Z,2.00
2022-08-16T15:51:41.302Z,1.90
2022-08-16T15:54:16.591Z,2.10
2022-08-16T15:57:00.320Z,2.00
2022-08-16T15:59:34.749Z,2.10
2022-08-16T16:02:18.516Z,2.10
2022-08-16T16:04:54.638Z,2.10
2022-08-16T16:07:22.464Z,2.03
2022-08-16T16:09:53.067Z,1.98
2022-08-16T16:12:50.098Z,2.22
2022-08-16T16:15:07.519Z,2.08
2022-08-16T16:17:35.124Z,2.10
2022-08-16T16:20:04.985Z,2.10
2022-08-16T16:22:35.178Z,1.90
2022-08-16T16:25:04.386Z,1.80
2022-08-16T16:27:31.268Z,1.83
2022-08-16T16:30:02.122Z,2.15
2022-08-16T16:32:34.438Z,2.10
2022-08-16T16:35:06.124Z,2.10
2022-08-16T16:37:33.194Z,2.30
2022-08-16T16:40:01.427Z,2.05
2022-08-16T16:42:31.424Z,1.90
2022-08-16T16:45:01.661Z,1.80
2022-08-16T16:47:30.264Z,1.80
2022-08-16T16:50:09.240Z,1.92
2022-08-16T16:52:43.867Z,1.95
2022-08-16T16:55:13.377Z,1.90
2022-08-16T16:58:01.267Z,2.17
2022-08-16T17:00:37.469Z,2.05
2022-08-16T17:03:05.810Z,2.20
2022-08-16T17:05:42.630Z,2.00
2022-08-16T17:08:24.847Z,2.30
2022-08-16T17:10:54.537Z,2.33
2022-08-16T17:13:25.587Z,1.80
2022-08-16T17:15:53.434Z,2.70
2022-08-16T17:19:14.524Z,2.45
2022-08-16T17:21:09.237Z,2.45
2022-08-16T17:23:59.682Z,2.40
2022-08-16T17:26:30.209Z,2.50
2022-08-16T17:29:02.590Z,2.25
2022-08-16T17:31:43.258Z,2.40
2022-08-16T17:34:29.308Z,3.13
2022-08-16T17:37:00.469Z,2.30
2022-08-16T17:39:30.016Z,2.10
2022-08-16T17:42:02.841Z,2.22
2022-08-16T17:44:30.175Z,2.58
2022-08-16T17:46:57.015Z,2.47
2022-08-16T17:49:24.013Z,2.33
2022-08-16T17:51:51.041Z,2.50
2022-08-16T17:54:30.828Z,2.45
2022-08-16T17:57:00.774Z,2.53
2022-08-16T17:59:28.385Z,2.45
2022-08-16T18:01:56.694Z,2.38
2022-08-16T18:04:48.015Z,2.80
2022-08-16T18:07:21.724Z,2.95
2022-08-16T18:09:52.467Z,2.50
2022-08-16T18:12:51.142Z,2.67
2022-08-16T18:15:15.688Z,3.25
2022-08-16T18:17:44.573Z,2.80
2022-08-16T18:20:46.127Z,2.55
2022-08-16T18:23:21.198Z,3.10
2022-08-16T18:25:52.528Z,2.83
2022-08-16T18:28:20.032Z,2.92
2022-08-16T18:30:51.403Z,3.40
2022-08-16T18:33:20.928Z,3.38
2022-08-16T18:35:48.008Z,3.35
2022-08-16T18:38:15.228Z,3.45
2022-08-16T18:40:42.859Z,2.83
2022-08-16T18:43:17.290Z,3.38
2022-08-16T18:45:47.053Z,3.10
2022-08-16T18:48:14.750Z,3.10
2022-08-16T18:51:03.436Z,3.08
2022-08-16T18:53:30.850Z,3.47
2022-08-16T18:55:59.872Z,3.40
2022-08-16T18:58:30.131Z,3.70
2022-08-16T19:00:57.568Z,4.40
2022-08-16T19:03:28.899Z,4.05
2022-08-16T19:06:07.135Z,3.38
2022-08-16T19:11:08.357Z,3.50
2022-08-16T19:13:35.349Z,3.40
2022-08-16T19:16:04.201Z,3.70
2022-08-16T19:18:36.681Z,3.55
2022-08-16T19:21:04.776Z,3.30
2022-08-16T19:23:34.459Z,3.83
2022-08-16T19:26:06.703Z,3.55
2022-08-16T19:28:50.505Z,3.15
2022-08-16T19:31:28.798Z,3.28
2022-08-16T19:33:56.811Z,3.47
2022-08-16T19:36:33.953Z,3.40
2022-08-16T19:39:07.211Z,3.45
2022-08-16T19:41:38.265Z,3.30
2022-08-16T19:44:06.374Z,3.17
2022-08-16T19:46:33.395Z,3.47
2022-08-16T19:49:00.426Z,3.60
2022-08-16T19:51:27.744Z,3.40
2022-08-16T19:53:54.687Z,3.45
2022-08-16T19:56:25.849Z,3.25
2022-08-16T20:01:42.563Z,3.58
2022-08-16T20:04:12.557Z,3.97
2022-08-16T20:06:40.501Z,5.07
2022-08-16T20:09:07.952Z,3.85
2022-08-16T20:11:37.516Z,4.03
2022-08-16T20:14:05.595Z,3.95
2022-08-16T20:16:32.379Z,3.75
2022-08-16T20:18:59.317Z,3.95
2022-08-16T20:21:26.128Z,3.90
2022-08-16T20:24:01.295Z,3.35
2022-08-16T20:26:37.089Z,3.20
2022-08-16T20:29:03.920Z,3.47
2022-08-16T20:31:30.750Z,3.40
2022-08-16T20:33:57.684Z,4.18
2022-08-16T20:36:24.713Z,3.95
2022-08-16T20:38:52.749Z,3.83
2022-08-16T20:41:19.630Z,3.28
2022-08-16T20:43:47.631Z,3.63
2022-08-16T20:46:14.789Z,3.38
2022-08-16T20:48:42.758Z,3.58
2022-08-16T20:51:10.775Z,3.60
2022-08-16T20:53:39.718Z,3.45
2022-08-16T20:56:08.137Z,3.78
2022-08-16T20:58:35.541Z,3.70
2022-08-16T21:01:02.742Z,3.80
2022-08-16T21:03:29.679Z,3.40
2022-08-16T21:06:02.188Z,4.00
2022-08-16T21:08:52.040Z,3.20
2022-08-16T21:11:17.782Z,3.63
2022-08-16T21:13:44.595Z,3.70
2022-08-16T21:16:11.560Z,3.33
2022-08-16T21:18:38.764Z,3.58
2022-08-16T21:21:05.576Z,4.10
2022-08-16T21:23:33.157Z,3.70
2022-08-16T21:26:00.070Z,3.72
2022-08-16T21:28:40.214Z,3.80
2022-08-16T21:31:14.566Z,3.90
2022-08-16T21:33:43.236Z,3.57
2022-08-16T21:36:11.103Z,3.30
2022-08-16T21:38:39.001Z,3.90
2022-08-16T21:41:08.013Z,3.92
2022-08-16T21:43:36.341Z,4.00
2022-08-16T21:46:05.310Z,3.60
2022-08-16T21:48:34.407Z,4.28
2022-08-16T21:51:07.749Z,3.67
2022-08-16T21:53:35.092Z,4.47
2022-08-16T21:56:02.447Z,4.35
2022-08-16T21:58:30.877Z,4.03
2022-08-16T22:00:58.911Z,4.25
2022-08-16T22:03:25.833Z,4.03
2022-08-16T22:06:12.327Z,4.28
2022-08-16T22:08:48.814Z,4.07
2022-08-16T22:11:22.170Z,4.03
2022-08-16T22:13:57.179Z,3.90
2022-08-16T22:16:33.105Z,4.30
2022-08-16T22:19:00.946Z,4.70
2022-08-16T22:21:28.292Z,4.32
2022-08-16T22:23:57.453Z,4.40
2022-08-16T22:26:31.289Z,4.30
2022-08-16T22:29:00.675Z,5.45
2022-08-16T22:31:27.932Z,4.93
2022-08-16T22:33:56.699Z,4.45
2022-08-16T22:36:28.390Z,4.53
2022-08-16T22:39:00.370Z,4.50
2022-08-16T22:41:29.109Z,4.70
2022-08-16T22:43:56.452Z,4.70
2022-08-16T22:46:23.959Z,4.70
2022-08-16T22:48:51.111Z,4.50
2022-08-16T22:51:19.371Z,4.35
2022-08-16T22:53:46.350Z,4.50
2022-08-16T22:56:13.410Z,4.53
2022-08-16T22:58:40.249Z,4.50
2022-08-16T23:01:09.346Z,4.78
2022-08-16T23:03:37.508Z,4.70
2022-08-16T23:06:05.438Z,4.55
2022-08-16T23:08:39.144Z,4.60
2022-08-16T23:11:14.311Z,4.63
2022-08-16T23:13:52.440Z,5.10
2022-08-16T23:16:33.822Z,4.53
2022-08-16T23:19:11.437Z,5.10
2022-08-16T23:21:41.393Z,4.68
2022-08-16T23:24:09.117Z,4.90
2022-08-16T23:26:48.090Z,4.80
2022-08-16T23:29:25.166Z,4.82
2022-08-16T23:32:10.901Z,5.20
2022-08-16T23:34:37.891Z,4.90
2022-08-16T23:37:06.073Z,4.97
2022-08-16T23:39:33.044Z,5.10
2022-08-16T23:42:00.739Z,5.45
2022-08-16T23:44:41.890Z,5.32
2022-08-16T23:47:14.520Z,4.93
2022-08-16T23:49:59.493Z,5.07
2022-08-16T23:52:48.856Z,5.15
2022-08-16T23:55:16.272Z,5.07
2022-08-16T23:57:43.958Z,5.00
